Terminal Aerodrome Forecast
Issued by NWS Paducah, KY

Home | Current Version | Previous Version | Text Only | Print | Product List | Glossary On
Versions: 1 2 3 4 5 6 7 8 9 10 11 12 13 14
259
FTUS43 KPAH 021720
TAFPAH
TAF
KPAH 021720Z 0218/0318 33006KT P6SM FEW030 BKN200
     FM022100 34006KT P6SM OVC040
     FM030100 36004KT P6SM OVC050
     FM030800 35003KT P6SM FEW020
     FM031345 35006KT P6SM FEW045=

USA.gov is the U.S. government's official web portal to all federal, state and local government web resources and services.